»·PEaware :: TEXAN21 KRND-KNFW

TEXAN21 :: KRND-KNFW

FLIGHT INFORMATION

Flight Status: Arrived
Operator: Unknown
More flights by this operator :: More flights under this callsign
Pilot: Indie I. (23342)
Aircraft: BEECH AIRCRAFT T-6A TEXAN
(TEX2)
More flights by this aircraft type
Origin: KRND Randolph AFB
United States
Destination: KNFW Fort Worth NAS Jrb
United States
More flights between these airports :: More routes between these airports
Route: SAT AGJ JEN NFW
File this flight plan on PilotEdge
Remarks: +CW /
Altitude:
(Current/Filed)
17,000ft
Speed:
(Current/Filed)
200kts
Departed: 16-Mar-20 06:51 AM
Arrived: 16-Mar-20 07:58 AM
Distance/Time
Traveled:
195nm/1:06
Distance/Time
To Go:
Arrived

Flight Plot

Page will automatically refresh every two minutes.

Flight plan parsing failed; only flown route is shown


Map Options




Map Legend


Flown Route
Filed Route
Departure Airport
Arrival Airport
Navaid (VOR, NDB)
Fix

Horizontal Profiles

Position Reports

Time Latitude Longitude Heading Altitude Ground
Speed
16-Mar-20 06:46 29.534353 -98.292806 0 761ft 0kts
16-Mar-20 06:47 29.534814 -98.291785 335 765ft 0kts
16-Mar-20 06:48 29.534828 -98.291793 335 765ft 0kts
16-Mar-20 06:49 29.534841 -98.291800 335 765ft 0kts
16-Mar-20 06:50 29.536916 -98.293180 50 765ft 51kts
16-Mar-20 06:51 29.537446 -98.292611 68 765ft 60kts
16-Mar-20 06:52 29.535856 -98.289078 185 766ft 0kts
16-Mar-20 06:53 29.535674 -98.289096 185 765ft 0kts
16-Mar-20 06:54 29.535465 -98.289815 250 765ft 7kts
16-Mar-20 06:55 29.534920 -98.292682 17 765ft 13kts
16-Mar-20 06:56 29.534613 -98.291419 252 765ft 0kts
16-Mar-20 06:57 29.534612 -98.291421 252 765ft 0kts
16-Mar-20 06:58 29.534612 -98.291423 252 765ft 0kts
16-Mar-20 06:59 29.534611 -98.291426 252 765ft 0kts
16-Mar-20 07:00 29.534610 -98.291428 252 765ft 0kts
16-Mar-20 07:01 29.534610 -98.291430 252 765ft 0kts
16-Mar-20 07:02 29.526650 -98.287890 150 931ft 120kts
16-Mar-20 07:03 29.489484 -98.262842 149 3632ft 174kts
16-Mar-20 07:04 29.445762 -98.237086 179 6853ft 183kts
16-Mar-20 07:05 29.443773 -98.275055 332 9960ft 179kts
16-Mar-20 07:06 29.491152 -98.300242 335 12736ft 190kts
16-Mar-20 07:07 29.549208 -98.329034 336 14015ft 212kts
16-Mar-20 07:08 29.603975 -98.356702 336 16313ft 216kts
16-Mar-20 07:09 29.664403 -98.386551 334 17077ft 260kts
16-Mar-20 07:10 29.731353 -98.421150 336 17061ft 267kts
16-Mar-20 07:11 29.803827 -98.434571 359 16979ft 270kts
16-Mar-20 07:12 29.877011 -98.420695 13 17097ft 267kts
16-Mar-20 07:13 29.950859 -98.406507 8 17062ft 267kts
16-Mar-20 07:14 30.025200 -98.395259 7 17022ft 269kts
16-Mar-20 07:15 30.099077 -98.383689 7 17041ft 269kts
16-Mar-20 07:16 30.173350 -98.371964 9 17048ft 269kts
16-Mar-20 07:17 30.247403 -98.356337 12 16990ft 269kts
16-Mar-20 07:18 30.320566 -98.340256 10 17059ft 268kts
16-Mar-20 07:19 30.395324 -98.337706 0 17010ft 270kts
16-Mar-20 07:20 30.470145 -98.334981 8 17099ft 266kts
16-Mar-20 07:21 30.543656 -98.318505 11 17022ft 270kts
16-Mar-20 07:22 30.617630 -98.302626 11 17026ft 268kts
16-Mar-20 07:23 30.689781 -98.279954 16 16987ft 270kts
16-Mar-20 07:24 30.762695 -98.259801 11 17117ft 264kts
16-Mar-20 07:25 30.835602 -98.242503 11 17080ft 269kts
16-Mar-20 07:26 30.909809 -98.225513 11 16940ft 271kts
16-Mar-20 07:27 30.981783 -98.202782 17 17009ft 270kts
16-Mar-20 07:28 31.053574 -98.177046 10 17005ft 269kts
16-Mar-20 07:29 31.127002 -98.159343 14 16985ft 270kts
16-Mar-20 07:30 31.199721 -98.139319 12 17057ft 268kts
16-Mar-20 07:31 31.271581 -98.113908 12 17042ft 268kts
16-Mar-20 07:32 31.343941 -98.090755 17 16999ft 270kts
16-Mar-20 07:33 31.415791 -98.065539 16 17003ft 270kts
16-Mar-20 07:34 31.487985 -98.041115 16 17006ft 270kts
16-Mar-20 07:35 31.560336 -98.016438 16 17011ft 270kts
16-Mar-20 07:36 31.631957 -97.990704 17 17018ft 270kts
16-Mar-20 07:37 31.703148 -97.962823 18 17028ft 270kts
16-Mar-20 07:38 31.775965 -97.941811 8 17049ft 267kts
16-Mar-20 07:39 31.846255 -97.929106 9 15006ft 246kts
16-Mar-20 07:40 31.912377 -97.909956 19 12949ft 239kts
16-Mar-20 07:41 31.972526 -97.877666 22 11052ft 231kts
16-Mar-20 07:42 32.027282 -97.839639 32 9169ft 229kts
16-Mar-20 07:43 32.072969 -97.788004 46 7101ft 229kts
16-Mar-20 07:44 32.116379 -97.736785 27 5367ft 222kts
16-Mar-20 07:45 32.169942 -97.701045 29 4062ft 236kts
16-Mar-20 07:46 32.234959 -97.661219 25 4089ft 273kts
16-Mar-20 07:47 32.302481 -97.619011 29 4002ft 283kts
16-Mar-20 07:48 32.368730 -97.573474 30 4125ft 262kts
16-Mar-20 07:49 32.432806 -97.539226 17 4057ft 220kts
16-Mar-20 07:50 32.488481 -97.518708 16 4159ft 205kts
16-Mar-20 07:51 32.546280 -97.497303 17 4068ft 218kts
16-Mar-20 07:52 32.600304 -97.476647 19 3989ft 172kts
16-Mar-20 07:53 32.640733 -97.455928 37 3885ft 155kts
16-Mar-20 07:54 32.679738 -97.442677 13 3709ft 137kts
16-Mar-20 07:55 32.713497 -97.441549 355 1765ft 122kts
16-Mar-20 07:56 32.746181 -97.441713 0 808ft 122kts
16-Mar-20 07:57 32.763842 -97.441572 2 653ft 0kts
16-Mar-20 07:58 32.763844 -97.441572 2 653ft 0kts
16-Mar-20 07:59 32.754061 -97.479634 180 4146ft 153kts
16-Mar-20 08:00 32.704362 -97.481886 182 4213ft 211kts
16-Mar-20 08:01 32.650247 -97.507110 184 4073ft 210kts
16-Mar-20 08:02 32.607009 -97.486411 96 4061ft 165kts
16-Mar-20 08:03 32.632701 -97.452819 6 4021ft 159kts
16-Mar-20 08:04 32.671809 -97.442415 6 2989ft 143kts
16-Mar-20 08:06 32.708521 -97.442084 0 1573ft 130kts
16-Mar-20 08:07 32.745095 -97.441748 0 866ft 132kts
16-Mar-20 08:08 32.762000 -97.441589 0 653ft 71kts
16-Mar-20 08:09 32.770115 -97.525379 184 4005ft 181kts
16-Mar-20 08:10 32.711115 -97.528228 181 3599ft 195kts
16-Mar-20 08:11 32.676423 -97.492788 95 2966ft 162kts
16-Mar-20 08:12 32.694943 -97.457628 49 2769ft 120kts

Navigation Log

Ident Type
Flight plan parsing failed, navigation log unavailable